sensor_id;sensor_type;location;lat;lon;timestamp;pressure;altitude;pressure_sealevel;temperature
67822;BMP180;54434;50.096;20.082;2023-08-31T00:01:27;98085.60;;;15.70
67822;BMP180;54434;50.096;20.082;2023-08-31T00:04:03;98082.80;;;15.70
67822;BMP180;54434;50.096;20.082;2023-08-31T00:06:43;98080.20;;;15.70
67822;BMP180;54434;50.096;20.082;2023-08-31T00:09:21;98077.20;;;15.70
67822;BMP180;54434;50.096;20.082;2023-08-31T00:11:59;98080.60;;;15.70
67822;BMP180;54434;50.096;20.082;2023-08-31T00:14:36;98082.60;;;15.70
67822;BMP180;54434;50.096;20.082;2023-08-31T00:17:14;98082.40;;;15.70
67822;BMP180;54434;50.096;20.082;2023-08-31T00:19:50;98080.00;;;15.70
67822;BMP180;54434;50.096;20.082;2023-08-31T00:22:26;98079.80;;;15.62
67822;BMP180;54434;50.096;20.082;2023-08-31T00:25:04;98081.60;;;15.60
67822;BMP180;54434;50.096;20.082;2023-08-31T00:27:44;98085.40;;;15.60
67822;BMP180;54434;50.096;20.082;2023-08-31T00:30:23;98087.60;;;15.60
67822;BMP180;54434;50.096;20.082;2023-08-31T00:33:05;98087.40;;;15.60
67822;BMP180;54434;50.096;20.082;2023-08-31T00:35:41;98086.60;;;15.60
67822;BMP180;54434;50.096;20.082;2023-08-31T00:38:21;98083.00;;;15.60
67822;BMP180;54434;50.096;20.082;2023-08-31T00:40:57;98088.00;;;15.60
67822;BMP180;54434;50.096;20.082;2023-08-31T00:43:34;98090.20;;;15.60
67822;BMP180;54434;50.096;20.082;2023-08-31T00:46:10;98092.40;;;15.54
67822;BMP180;54434;50.096;20.082;2023-08-31T00:48:47;98090.40;;;15.50
67822;BMP180;54434;50.096;20.082;2023-08-31T00:51:24;98096.80;;;15.50
67822;BMP180;54434;50.096;20.082;2023-08-31T00:54:00;98098.20;;;15.50
67822;BMP180;54434;50.096;20.082;2023-08-31T00:56:37;98095.20;;;15.54
67822;BMP180;54434;50.096;20.082;2023-08-31T00:59:16;98095.40;;;15.52
67822;BMP180;54434;50.096;20.082;2023-08-31T01:02:04;98094.80;;;15.58
67822;BMP180;54434;50.096;20.082;2023-08-31T01:04:58;98092.20;;;15.50
67822;BMP180;54434;50.096;20.082;2023-08-31T01:07:50;98087.60;;;15.50
67822;BMP180;54434;50.096;20.082;2023-08-31T01:10:36;98085.80;;;15.50
67822;BMP180;54434;50.096;20.082;2023-08-31T01:13:21;98088.00;;;15.50
67822;BMP180;54434;50.096;20.082;2023-08-31T01:16:05;98086.00;;;15.50
67822;BMP180;54434;50.096;20.082;2023-08-31T01:18:45;98091.60;;;15.46
67822;BMP180;54434;50.096;20.082;2023-08-31T01:21:33;98094.80;;;15.40
67822;BMP180;54434;50.096;20.082;2023-08-31T01:24:12;98092.00;;;15.40
67822;BMP180;54434;50.096;20.082;2023-08-31T01:26:54;98090.80;;;15.40
67822;BMP180;54434;50.096;20.082;2023-08-31T01:29:32;98088.40;;;15.38
67822;BMP180;54434;50.096;20.082;2023-08-31T01:32:11;98087.20;;;15.30
67822;BMP180;54434;50.096;20.082;2023-08-31T01:34:48;98092.20;;;15.30
67822;BMP180;54434;50.096;20.082;2023-08-31T01:37:35;98092.40;;;15.30
67822;BMP180;54434;50.096;20.082;2023-08-31T01:40:22;98087.20;;;15.20
67822;BMP180;54434;50.096;20.082;2023-08-31T01:43:00;98089.60;;;15.20
67822;BMP180;54434;50.096;20.082;2023-08-31T01:45:39;98089.80;;;15.10
67822;BMP180;54434;50.096;20.082;2023-08-31T01:48:19;98091.00;;;15.08
67822;BMP180;54434;50.096;20.082;2023-08-31T01:50:55;98095.80;;;15.00
67822;BMP180;54434;50.096;20.082;2023-08-31T01:53:32;98103.80;;;15.00
67822;BMP180;54434;50.096;20.082;2023-08-31T01:56:10;98107.60;;;15.00
67822;BMP180;54434;50.096;20.082;2023-08-31T01:58:46;98104.00;;;14.92
67822;BMP180;54434;50.096;20.082;2023-08-31T02:01:22;98105.40;;;14.90
67822;BMP180;54434;50.096;20.082;2023-08-31T02:03:59;98107.20;;;14.90
67822;BMP180;54434;50.096;20.082;2023-08-31T02:06:35;98109.80;;;14.92
67822;BMP180;54434;50.096;20.082;2023-08-31T02:09:15;98115.00;;;15.00
67822;BMP180;54434;50.096;20.082;2023-08-31T02:11:51;98115.00;;;15.00
67822;BMP180;54434;50.096;20.082;2023-08-31T02:14:29;98119.20;;;15.00
67822;BMP180;54434;50.096;20.082;2023-08-31T02:17:05;98116.00;;;15.00
67822;BMP180;54434;50.096;20.082;2023-08-31T02:19:42;98118.60;;;15.06
67822;BMP180;54434;50.096;20.082;2023-08-31T02:22:18;98124.60;;;15.10
67822;BMP180;54434;50.096;20.082;2023-08-31T02:24:55;98128.60;;;15.10
67822;BMP180;54434;50.096;20.082;2023-08-31T02:27:31;98130.20;;;15.10
67822;BMP180;54434;50.096;20.082;2023-08-31T02:30:10;98132.40;;;15.10
67822;BMP180;54434;50.096;20.082;2023-08-31T02:32:46;98136.80;;;15.10
67822;BMP180;54434;50.096;20.082;2023-08-31T02:35:24;98140.20;;;15.20
67822;BMP180;54434;50.096;20.082;2023-08-31T02:38:00;98142.20;;;15.20
67822;BMP180;54434;50.096;20.082;2023-08-31T02:40:38;98138.20;;;15.20
67822;BMP180;54434;50.096;20.082;2023-08-31T02:43:15;98138.80;;;15.20
67822;BMP180;54434;50.096;20.082;2023-08-31T02:46:00;98137.00;;;15.20
67822;BMP180;54434;50.096;20.082;2023-08-31T02:48:37;98138.40;;;15.20
67822;BMP180;54434;50.096;20.082;2023-08-31T02:51:15;98140.60;;;15.28
67822;BMP180;54434;50.096;20.082;2023-08-31T02:53:52;98147.60;;;15.28
67822;BMP180;54434;50.096;20.082;2023-08-31T02:56:29;98150.20;;;15.30
67822;BMP180;54434;50.096;20.082;2023-08-31T02:59:05;98145.20;;;15.26
67822;BMP180;54434;50.096;20.082;2023-08-31T03:01:42;98151.00;;;15.30
67822;BMP180;54434;50.096;20.082;2023-08-31T03:04:21;98151.40;;;15.30
67822;BMP180;54434;50.096;20.082;2023-08-31T03:06:58;98152.60;;;15.30
67822;BMP180;54434;50.096;20.082;2023-08-31T03:09:34;98153.00;;;15.30
67822;BMP180;54434;50.096;20.082;2023-08-31T03:12:13;98149.20;;;15.30
67822;BMP180;54434;50.096;20.082;2023-08-31T03:14:49;98152.40;;;15.30
67822;BMP180;54434;50.096;20.082;2023-08-31T03:17:25;98149.00;;;15.32
67822;BMP180;54434;50.096;20.082;2023-08-31T03:20:02;98151.80;;;15.30
67822;BMP180;54434;50.096;20.082;2023-08-31T03:22:41;98155.80;;;15.30
67822;BMP180;54434;50.096;20.082;2023-08-31T03:25:18;98158.40;;;15.30
67822;BMP180;54434;50.096;20.082;2023-08-31T03:27:55;98156.00;;;15.30
67822;BMP180;54434;50.096;20.082;2023-08-31T03:30:32;98152.20;;;15.30
67822;BMP180;54434;50.096;20.082;2023-08-31T03:33:09;98156.20;;;15.30
67822;BMP180;54434;50.096;20.082;2023-08-31T03:35:45;98151.00;;;15.30
67822;BMP180;54434;50.096;20.082;2023-08-31T03:38:22;98151.00;;;15.30
67822;BMP180;54434;50.096;20.082;2023-08-31T03:40:59;98153.40;;;15.30
67822;BMP180;54434;50.096;20.082;2023-08-31T03:43:36;98156.20;;;15.30
67822;BMP180;54434;50.096;20.082;2023-08-31T03:46:12;98156.00;;;15.30
67822;BMP180;54434;50.096;20.082;2023-08-31T03:48:49;98157.60;;;15.30
67822;BMP180;54434;50.096;20.082;2023-08-31T03:51:25;98160.20;;;15.30
67822;BMP180;54434;50.096;20.082;2023-08-31T03:54:01;98154.60;;;15.30
67822;BMP180;54434;50.096;20.082;2023-08-31T03:56:38;98156.00;;;15.20
67822;BMP180;54434;50.096;20.082;2023-08-31T03:59:15;98163.40;;;15.20
67822;BMP180;54434;50.096;20.082;2023-08-31T04:01:53;98167.80;;;15.20
67822;BMP180;54434;50.096;20.082;2023-08-31T04:04:29;98170.20;;;15.20
67822;BMP180;54434;50.096;20.082;2023-08-31T04:07:06;98176.80;;;15.20
67822;BMP180;54434;50.096;20.082;2023-08-31T04:09:42;98181.80;;;15.20
67822;BMP180;54434;50.096;20.082;2023-08-31T04:12:18;98182.80;;;15.20
67822;BMP180;54434;50.096;20.082;2023-08-31T04:14:55;98182.80;;;15.20
67822;BMP180;54434;50.096;20.082;2023-08-31T04:17:31;98179.20;;;15.20
67822;BMP180;54434;50.096;20.082;2023-08-31T04:20:11;98183.20;;;15.22
67822;BMP180;54434;50.096;20.082;2023-08-31T04:22:47;98181.00;;;15.20
67822;BMP180;54434;50.096;20.082;2023-08-31T04:25:24;98180.80;;;15.30
67822;BMP180;54434;50.096;20.082;2023-08-31T04:28:00;98185.00;;;15.30
67822;BMP180;54434;50.096;20.082;2023-08-31T04:30:38;98186.80;;;15.30
67822;BMP180;54434;50.096;20.082;2023-08-31T04:33:15;98184.60;;;15.30
67822;BMP180;54434;50.096;20.082;2023-08-31T04:35:51;98190.40;;;15.40
67822;BMP180;54434;50.096;20.082;2023-08-31T04:38:27;98194.60;;;15.40
67822;BMP180;54434;50.096;20.082;2023-08-31T04:41:04;98197.00;;;15.40
67822;BMP180;54434;50.096;20.082;2023-08-31T04:43:41;98193.20;;;15.40
67822;BMP180;54434;50.096;20.082;2023-08-31T04:46:18;98189.80;;;15.48
67822;BMP180;54434;50.096;20.082;2023-08-31T04:48:55;98190.40;;;15.50
67822;BMP180;54434;50.096;20.082;2023-08-31T04:51:37;98191.60;;;15.50
67822;BMP180;54434;50.096;20.082;2023-08-31T04:54:14;98190.60;;;15.50
67822;BMP180;54434;50.096;20.082;2023-08-31T04:56:51;98197.20;;;15.50
67822;BMP180;54434;50.096;20.082;2023-08-31T04:59:27;98200.60;;;15.50
67822;BMP180;54434;50.096;20.082;2023-08-31T05:02:04;98211.00;;;15.54
67822;BMP180;54434;50.096;20.082;2023-08-31T05:04:40;98213.00;;;15.60
67822;BMP180;54434;50.096;20.082;2023-08-31T05:07:17;98213.80;;;15.60
67822;BMP180;54434;50.096;20.082;2023-08-31T05:09:53;98220.60;;;15.70
67822;BMP180;54434;50.096;20.082;2023-08-31T05:12:29;98218.40;;;15.70
67822;BMP180;54434;50.096;20.082;2023-08-31T05:15:07;98223.60;;;15.80
67822;BMP180;54434;50.096;20.082;2023-08-31T05:17:44;98227.20;;;15.90
67822;BMP180;54434;50.096;20.082;2023-08-31T05:20:21;98226.60;;;15.90
67822;BMP180;54434;50.096;20.082;2023-08-31T05:22:58;98229.40;;;16.00
67822;BMP180;54434;50.096;20.082;2023-08-31T05:25:35;98236.00;;;16.00
67822;BMP180;54434;50.096;20.082;2023-08-31T05:28:11;98233.20;;;16.10
67822;BMP180;54434;50.096;20.082;2023-08-31T05:30:57;98237.40;;;16.14
67822;BMP180;54434;50.096;20.082;2023-08-31T05:33:33;98239.00;;;16.20
67822;BMP180;54434;50.096;20.082;2023-08-31T05:36:10;98237.00;;;16.30
67822;BMP180;54434;50.096;20.082;2023-08-31T05:38:47;98235.60;;;16.30
67822;BMP180;54434;50.096;20.082;2023-08-31T05:41:23;98237.20;;;16.40
67822;BMP180;54434;50.096;20.082;2023-08-31T05:43:59;98239.40;;;16.46
67822;BMP180;54434;50.096;20.082;2023-08-31T05:46:36;98242.80;;;16.50
67822;BMP180;54434;50.096;20.082;2023-08-31T05:49:13;98245.00;;;16.70
67822;BMP180;54434;50.096;20.082;2023-08-31T05:51:51;98243.20;;;16.80
67822;BMP180;54434;50.096;20.082;2023-08-31T05:54:27;98251.00;;;16.90
67822;BMP180;54434;50.096;20.082;2023-08-31T05:57:06;98252.00;;;17.00
67822;BMP180;54434;50.096;20.082;2023-08-31T05:59:42;98257.00;;;17.10
67822;BMP180;54434;50.096;20.082;2023-08-31T06:02:18;98255.80;;;17.30
67822;BMP180;54434;50.096;20.082;2023-08-31T06:04:55;98256.40;;;17.40
67822;BMP180;54434;50.096;20.082;2023-08-31T06:07:31;98253.60;;;17.60
67822;BMP180;54434;50.096;20.082;2023-08-31T06:10:10;98254.60;;;17.70
67822;BMP180;54434;50.096;20.082;2023-08-31T06:12:47;98255.80;;;17.90
67822;BMP180;54434;50.096;20.082;2023-08-31T06:15:25;98264.00;;;18.00
67822;BMP180;54434;50.096;20.082;2023-08-31T06:18:01;98259.20;;;18.10
67822;BMP180;54434;50.096;20.082;2023-08-31T06:20:38;98257.80;;;18.12
67822;BMP180;54434;50.096;20.082;2023-08-31T06:23:15;98260.00;;;18.20
67822;BMP180;54434;50.096;20.082;2023-08-31T06:25:51;98255.80;;;18.14
67822;BMP180;54434;50.096;20.082;2023-08-31T06:28:28;98253.80;;;18.10
67822;BMP180;54434;50.096;20.082;2023-08-31T06:31:04;98251.40;;;18.10
67822;BMP180;54434;50.096;20.082;2023-08-31T06:33:40;98256.20;;;18.10
67822;BMP180;54434;50.096;20.082;2023-08-31T06:36:23;98259.80;;;18.20
67822;BMP180;54434;50.096;20.082;2023-08-31T06:38:59;98264.00;;;18.20
67822;BMP180;54434;50.096;20.082;2023-08-31T06:41:36;98264.20;;;18.20
67822;BMP180;54434;50.096;20.082;2023-08-31T06:44:12;98265.00;;;18.30
67822;BMP180;54434;50.096;20.082;2023-08-31T06:46:48;98267.20;;;18.30
67822;BMP180;54434;50.096;20.082;2023-08-31T06:49:26;98273.40;;;18.30
67822;BMP180;54434;50.096;20.082;2023-08-31T06:52:06;98278.20;;;18.38
67822;BMP180;54434;50.096;20.082;2023-08-31T06:55:03;98278.60;;;18.50
67822;BMP180;54434;50.096;20.082;2023-08-31T06:57:41;98276.80;;;18.70
67822;BMP180;54434;50.096;20.082;2023-08-31T07:00:20;98276.20;;;19.00
67822;BMP180;54434;50.096;20.082;2023-08-31T07:02:57;98285.20;;;19.40
67822;BMP180;54434;50.096;20.082;2023-08-31T07:05:36;98288.40;;;19.70
67822;BMP180;54434;50.096;20.082;2023-08-31T07:08:17;98285.80;;;20.08
67822;BMP180;54434;50.096;20.082;2023-08-31T07:10:54;98293.60;;;20.40
67822;BMP180;54434;50.096;20.082;2023-08-31T07:13:30;98296.20;;;20.66
67822;BMP180;54434;50.096;20.082;2023-08-31T07:16:08;98298.80;;;20.82
67822;BMP180;54434;50.096;20.082;2023-08-31T07:18:45;98299.00;;;21.00
67822;BMP180;54434;50.096;20.082;2023-08-31T07:21:22;98304.80;;;21.20
67822;BMP180;54434;50.096;20.082;2023-08-31T07:23:59;98308.80;;;21.20
67822;BMP180;54434;50.096;20.082;2023-08-31T07:26:36;98309.20;;;21.20
67822;BMP180;54434;50.096;20.082;2023-08-31T07:29:12;98315.20;;;21.28
67822;BMP180;54434;50.096;20.082;2023-08-31T07:31:49;98319.80;;;21.30
67822;BMP180;54434;50.096;20.082;2023-08-31T07:34:25;98325.80;;;21.30
67822;BMP180;54434;50.096;20.082;2023-08-31T07:37:02;98325.40;;;21.30
67822;BMP180;54434;50.096;20.082;2023-08-31T07:39:39;98326.00;;;21.30
67822;BMP180;54434;50.096;20.082;2023-08-31T07:42:15;98329.60;;;21.30
67822;BMP180;54434;50.096;20.082;2023-08-31T07:44:52;98330.00;;;21.30
67822;BMP180;54434;50.096;20.082;2023-08-31T07:47:28;98333.40;;;21.20
67822;BMP180;54434;50.096;20.082;2023-08-31T07:50:09;98334.60;;;21.20
67822;BMP180;54434;50.096;20.082;2023-08-31T07:52:45;98338.00;;;21.20
67822;BMP180;54434;50.096;20.082;2023-08-31T07:55:21;98337.20;;;21.20
67822;BMP180;54434;50.096;20.082;2023-08-31T07:57:58;98338.60;;;21.10
67822;BMP180;54434;50.096;20.082;2023-08-31T08:00:34;98339.00;;;21.10
67822;BMP180;54434;50.096;20.082;2023-08-31T08:03:11;98341.00;;;21.20
67822;BMP180;54434;50.096;20.082;2023-08-31T08:05:48;98336.60;;;21.30
67822;BMP180;54434;50.096;20.082;2023-08-31T08:08:24;98335.60;;;21.30
67822;BMP180;54434;50.096;20.082;2023-08-31T08:11:01;98334.00;;;21.42
67822;BMP180;54434;50.096;20.082;2023-08-31T08:13:37;98336.80;;;21.60
67822;BMP180;54434;50.096;20.082;2023-08-31T08:16:14;98337.20;;;21.70
67822;BMP180;54434;50.096;20.082;2023-08-31T08:18:51;98335.40;;;21.80
67822;BMP180;54434;50.096;20.082;2023-08-31T08:21:28;98339.60;;;21.84
67822;BMP180;54434;50.096;20.082;2023-08-31T08:24:05;98342.40;;;21.90
67822;BMP180;54434;50.096;20.082;2023-08-31T08:26:41;98344.40;;;21.90
67822;BMP180;54434;50.096;20.082;2023-08-31T08:29:18;98343.20;;;21.90
67822;BMP180;54434;50.096;20.082;2023-08-31T08:31:54;98344.20;;;21.96
67822;BMP180;54434;50.096;20.082;2023-08-31T08:34:31;98350.20;;;22.06
67822;BMP180;54434;50.096;20.082;2023-08-31T08:37:08;98352.20;;;22.20
67822;BMP180;54434;50.096;20.082;2023-08-31T08:39:47;98364.60;;;22.30
67822;BMP180;54434;50.096;20.082;2023-08-31T08:42:28;98363.80;;;22.20
67822;BMP180;54434;50.096;20.082;2023-08-31T08:45:07;98370.80;;;22.20
67822;BMP180;54434;50.096;20.082;2023-08-31T08:47:45;98369.20;;;22.10
67822;BMP180;54434;50.096;20.082;2023-08-31T08:50:23;98371.40;;;22.00
67822;BMP180;54434;50.096;20.082;2023-08-31T08:53:00;98371.20;;;22.00
67822;BMP180;54434;50.096;20.082;2023-08-31T08:55:37;98375.60;;;22.00
67822;BMP180;54434;50.096;20.082;2023-08-31T08:58:14;98380.00;;;21.90
67822;BMP180;54434;50.096;20.082;2023-08-31T09:00:52;98379.00;;;21.80
67822;BMP180;54434;50.096;20.082;2023-08-31T09:03:30;98380.60;;;21.70
67822;BMP180;54434;50.096;20.082;2023-08-31T09:06:07;98381.80;;;21.50
67822;BMP180;54434;50.096;20.082;2023-08-31T09:08:52;98382.00;;;21.34
67822;BMP180;54434;50.096;20.082;2023-08-31T09:11:28;98378.80;;;21.20
67822;BMP180;54434;50.096;20.082;2023-08-31T09:14:17;98378.20;;;21.10
67822;BMP180;54434;50.096;20.082;2023-08-31T09:16:54;98375.60;;;21.00
67822;BMP180;54434;50.096;20.082;2023-08-31T09:19:31;98378.40;;;20.90
67822;BMP180;54434;50.096;20.082;2023-08-31T09:22:10;98379.20;;;20.90
67822;BMP180;54434;50.096;20.082;2023-08-31T09:24:47;98381.20;;;21.00
67822;BMP180;54434;50.096;20.082;2023-08-31T09:27:26;98380.60;;;21.00
67822;BMP180;54434;50.096;20.082;2023-08-31T09:30:04;98389.40;;;21.10
67822;BMP180;54434;50.096;20.082;2023-08-31T09:32:41;98390.80;;;21.22
67822;BMP180;54434;50.096;20.082;2023-08-31T09:35:19;98393.80;;;21.34
67822;BMP180;54434;50.096;20.082;2023-08-31T09:38:03;98397.60;;;21.42
67822;BMP180;54434;50.096;20.082;2023-08-31T09:40:40;98399.80;;;21.60
67822;BMP180;54434;50.096;20.082;2023-08-31T09:43:25;98401.00;;;21.80
67822;BMP180;54434;50.096;20.082;2023-08-31T09:46:03;98400.80;;;22.00
67822;BMP180;54434;50.096;20.082;2023-08-31T09:48:43;98404.80;;;22.10
67822;BMP180;54434;50.096;20.082;2023-08-31T09:51:21;98403.00;;;22.20
67822;BMP180;54434;50.096;20.082;2023-08-31T09:54:01;98403.00;;;22.20
67822;BMP180;54434;50.096;20.082;2023-08-31T09:56:42;98405.60;;;22.30
67822;BMP180;54434;50.096;20.082;2023-08-31T09:59:19;98413.40;;;22.40
67822;BMP180;54434;50.096;20.082;2023-08-31T10:01:56;98415.00;;;22.50
67822;BMP180;54434;50.096;20.082;2023-08-31T10:04:38;98417.20;;;22.50
67822;BMP180;54434;50.096;20.082;2023-08-31T10:07:15;98415.20;;;22.50
67822;BMP180;54434;50.096;20.082;2023-08-31T10:09:52;98417.40;;;22.50
67822;BMP180;54434;50.096;20.082;2023-08-31T10:12:31;98419.00;;;22.50
67822;BMP180;54434;50.096;20.082;2023-08-31T10:15:13;98421.40;;;22.40
67822;BMP180;54434;50.096;20.082;2023-08-31T10:17:51;98421.40;;;22.40
67822;BMP180;54434;50.096;20.082;2023-08-31T10:20:28;98420.20;;;22.40
67822;BMP180;54434;50.096;20.082;2023-08-31T10:23:09;98422.60;;;22.40
67822;BMP180;54434;50.096;20.082;2023-08-31T10:26:07;98425.60;;;22.50
67822;BMP180;54434;50.096;20.082;2023-08-31T10:28:47;98426.80;;;22.40
67822;BMP180;54434;50.096;20.082;2023-08-31T10:31:27;98426.60;;;22.30
67822;BMP180;54434;50.096;20.082;2023-08-31T10:34:05;98427.80;;;22.40
67822;BMP180;54434;50.096;20.082;2023-08-31T10:36:50;98425.60;;;22.60
67822;BMP180;54434;50.096;20.082;2023-08-31T10:39:46;98425.80;;;22.60
67822;BMP180;54434;50.096;20.082;2023-08-31T10:42:26;98422.00;;;22.70
67822;BMP180;54434;50.096;20.082;2023-08-31T10:45:10;98423.20;;;22.80
67822;BMP180;54434;50.096;20.082;2023-08-31T10:47:50;98426.80;;;22.90
67822;BMP180;54434;50.096;20.082;2023-08-31T10:50:28;98428.60;;;23.10
67822;BMP180;54434;50.096;20.082;2023-08-31T10:53:12;98427.20;;;23.30
67822;BMP180;54434;50.096;20.082;2023-08-31T10:55:58;98425.40;;;23.40
67822;BMP180;54434;50.096;20.082;2023-08-31T10:58:37;98430.60;;;23.50
67822;BMP180;54434;50.096;20.082;2023-08-31T11:01:14;98427.00;;;23.60
67822;BMP180;54434;50.096;20.082;2023-08-31T11:04:10;98428.80;;;23.70
67822;BMP180;54434;50.096;20.082;2023-08-31T11:06:47;98433.80;;;23.80
67822;BMP180;54434;50.096;20.082;2023-08-31T11:09:24;98432.00;;;23.90
67822;BMP180;54434;50.096;20.082;2023-08-31T11:12:01;98436.00;;;23.90
67822;BMP180;54434;50.096;20.082;2023-08-31T11:14:38;98436.40;;;23.90
67822;BMP180;54434;50.096;20.082;2023-08-31T11:17:17;98435.20;;;23.90
67822;BMP180;54434;50.096;20.082;2023-08-31T11:19:54;98433.80;;;23.90
67822;BMP180;54434;50.096;20.082;2023-08-31T11:22:31;98428.20;;;23.90
67822;BMP180;54434;50.096;20.082;2023-08-31T11:25:13;98428.40;;;23.90
67822;BMP180;54434;50.096;20.082;2023-08-31T11:28:00;98429.00;;;23.90
67822;BMP180;54434;50.096;20.082;2023-08-31T11:30:39;98428.00;;;23.90
67822;BMP180;54434;50.096;20.082;2023-08-31T11:33:19;98429.20;;;23.90
67822;BMP180;54434;50.096;20.082;2023-08-31T11:35:58;98430.20;;;23.90
67822;BMP180;54434;50.096;20.082;2023-08-31T11:38:35;98430.60;;;23.90
67822;BMP180;54434;50.096;20.082;2023-08-31T11:41:11;98430.80;;;23.94
67822;BMP180;54434;50.096;20.082;2023-08-31T11:43:48;98433.20;;;23.90
67822;BMP180;54434;50.096;20.082;2023-08-31T11:46:25;98432.80;;;23.90
67822;BMP180;54434;50.096;20.082;2023-08-31T11:49:03;98430.00;;;23.90
67822;BMP180;54434;50.096;20.082;2023-08-31T11:51:42;98428.60;;;23.90
67822;BMP180;54434;50.096;20.082;2023-08-31T11:54:19;98433.40;;;23.90
67822;BMP180;54434;50.096;20.082;2023-08-31T11:56:56;98432.20;;;23.82
67822;BMP180;54434;50.096;20.082;2023-08-31T11:59:38;98431.00;;;23.80
67822;BMP180;54434;50.096;20.082;2023-08-31T12:02:14;98427.40;;;23.78
67822;BMP180;54434;50.096;20.082;2023-08-31T12:04:50;98428.80;;;23.70
67822;BMP180;54434;50.096;20.082;2023-08-31T12:07:28;98428.60;;;23.70
67822;BMP180;54434;50.096;20.082;2023-08-31T12:10:10;98431.20;;;23.70
67822;BMP180;54434;50.096;20.082;2023-08-31T12:12:47;98433.20;;;23.70
67822;BMP180;54434;50.096;20.082;2023-08-31T12:15:23;98426.20;;;23.64
67822;BMP180;54434;50.096;20.082;2023-08-31T12:18:14;98431.20;;;23.60
67822;BMP180;54434;50.096;20.082;2023-08-31T12:20:53;98426.40;;;23.60
67822;BMP180;54434;50.096;20.082;2023-08-31T12:23:29;98423.00;;;23.60
67822;BMP180;54434;50.096;20.082;2023-08-31T12:26:08;98421.20;;;23.60
67822;BMP180;54434;50.096;20.082;2023-08-31T12:28:44;98415.60;;;23.60
67822;BMP180;54434;50.096;20.082;2023-08-31T12:31:22;98414.80;;;23.60
67822;BMP180;54434;50.096;20.082;2023-08-31T12:33:58;98416.40;;;23.60
67822;BMP180;54434;50.096;20.082;2023-08-31T12:36:40;98417.60;;;23.60
67822;BMP180;54434;50.096;20.082;2023-08-31T12:39:16;98414.80;;;23.50
67822;BMP180;54434;50.096;20.082;2023-08-31T12:41:52;98415.00;;;23.50
67822;BMP180;54434;50.096;20.082;2023-08-31T12:44:39;98411.60;;;23.50
67822;BMP180;54434;50.096;20.082;2023-08-31T12:47:16;98408.40;;;23.50
67822;BMP180;54434;50.096;20.082;2023-08-31T12:49:52;98409.80;;;23.50
67822;BMP180;54434;50.096;20.082;2023-08-31T12:52:29;98403.40;;;23.44
67822;BMP180;54434;50.096;20.082;2023-08-31T12:55:07;98403.80;;;23.40
67822;BMP180;54434;50.096;20.082;2023-08-31T12:57:44;98407.60;;;23.40
67822;BMP180;54434;50.096;20.082;2023-08-31T13:00:22;98401.40;;;23.40
67822;BMP180;54434;50.096;20.082;2023-08-31T13:02:59;98401.00;;;23.48
67822;BMP180;54434;50.096;20.082;2023-08-31T13:05:38;98402.20;;;23.50
67822;BMP180;54434;50.096;20.082;2023-08-31T13:08:14;98409.20;;;23.60
67822;BMP180;54434;50.096;20.082;2023-08-31T13:10:57;98408.20;;;23.60
67822;BMP180;54434;50.096;20.082;2023-08-31T13:13:34;98404.80;;;23.64
67822;BMP180;54434;50.096;20.082;2023-08-31T13:16:10;98407.20;;;23.60
67822;BMP180;54434;50.096;20.082;2023-08-31T13:18:47;98409.80;;;23.60
67822;BMP180;54434;50.096;20.082;2023-08-31T13:21:23;98406.20;;;23.60
67822;BMP180;54434;50.096;20.082;2023-08-31T13:24:00;98408.60;;;23.60
67822;BMP180;54434;50.096;20.082;2023-08-31T13:26:36;98406.60;;;23.50
67822;BMP180;54434;50.096;20.082;2023-08-31T13:29:13;98405.80;;;23.50
67822;BMP180;54434;50.096;20.082;2023-08-31T13:31:49;98410.40;;;23.50
67822;BMP180;54434;50.096;20.082;2023-08-31T13:34:26;98414.80;;;23.52
67822;BMP180;54434;50.096;20.082;2023-08-31T13:37:03;98411.80;;;23.50
67822;BMP180;54434;50.096;20.082;2023-08-31T13:39:40;98414.80;;;23.54
67822;BMP180;54434;50.096;20.082;2023-08-31T13:42:16;98418.40;;;23.60
67822;BMP180;54434;50.096;20.082;2023-08-31T13:44:53;98411.60;;;23.60
67822;BMP180;54434;50.096;20.082;2023-08-31T13:47:42;98412.80;;;23.60
67822;BMP180;54434;50.096;20.082;2023-08-31T13:50:26;98415.40;;;23.52
67822;BMP180;54434;50.096;20.082;2023-08-31T13:53:29;98413.60;;;23.40
67822;BMP180;54434;50.096;20.082;2023-08-31T13:56:06;98419.00;;;23.20
67822;BMP180;54434;50.096;20.082;2023-08-31T13:58:42;98424.20;;;23.10
67822;BMP180;54434;50.096;20.082;2023-08-31T14:01:19;98429.60;;;23.04
67822;BMP180;54434;50.096;20.082;2023-08-31T14:03:55;98432.00;;;23.00
67822;BMP180;54434;50.096;20.082;2023-08-31T14:06:32;98430.60;;;22.90
67822;BMP180;54434;50.096;20.082;2023-08-31T14:09:08;98434.60;;;22.88
67822;BMP180;54434;50.096;20.082;2023-08-31T14:11:44;98434.20;;;22.90
67822;BMP180;54434;50.096;20.082;2023-08-31T14:14:21;98430.40;;;22.90
67822;BMP180;54434;50.096;20.082;2023-08-31T14:16:59;98429.40;;;22.90
67822;BMP180;54434;50.096;20.082;2023-08-31T14:19:36;98424.40;;;22.90
67822;BMP180;54434;50.096;20.082;2023-08-31T14:22:14;98425.40;;;22.90
67822;BMP180;54434;50.096;20.082;2023-08-31T14:24:51;98428.60;;;23.00
67822;BMP180;54434;50.096;20.082;2023-08-31T14:27:27;98430.20;;;23.00
67822;BMP180;54434;50.096;20.082;2023-08-31T14:30:07;98431.20;;;23.00
67822;BMP180;54434;50.096;20.082;2023-08-31T14:32:43;98429.80;;;23.00
67822;BMP180;54434;50.096;20.082;2023-08-31T14:35:22;98433.80;;;22.90
67822;BMP180;54434;50.096;20.082;2023-08-31T14:38:01;98430.80;;;22.80
67822;BMP180;54434;50.096;20.082;2023-08-31T14:40:41;98438.80;;;22.76
67822;BMP180;54434;50.096;20.082;2023-08-31T14:43:17;98444.60;;;22.70
67822;BMP180;54434;50.096;20.082;2023-08-31T14:45:53;98446.00;;;22.70
67822;BMP180;54434;50.096;20.082;2023-08-31T14:48:30;98449.60;;;22.70
67822;BMP180;54434;50.096;20.082;2023-08-31T14:51:07;98454.40;;;22.70
67822;BMP180;54434;50.096;20.082;2023-08-31T14:53:45;98459.40;;;22.68
67822;BMP180;54434;50.096;20.082;2023-08-31T14:56:21;98473.00;;;22.60
67822;BMP180;54434;50.096;20.082;2023-08-31T14:58:58;98496.80;;;22.50